createdAt,value
2022-09-04T00:03:59.169Z,98344.00
2022-09-04T00:09:16.034Z,98349.16
2022-09-04T00:14:24.019Z,98356.78
2022-09-04T00:19:37.830Z,98361.28
2022-09-04T00:24:51.243Z,98360.16
2022-09-04T00:30:01.870Z,98360.06
2022-09-04T00:35:13.351Z,98365.59
2022-09-04T00:40:31.200Z,98375.31
2022-09-04T00:45:53.390Z,98371.25
2022-09-04T00:51:27.629Z,98384.50
2022-09-04T00:57:04.132Z,98388.34
2022-09-04T01:02:17.526Z,98401.13
2022-09-04T01:07:40.136Z,98397.31
2022-09-04T01:12:54.226Z,98414.13
2022-09-04T01:18:10.346Z,98414.03
2022-09-04T01:23:59.080Z,98419.09
2022-09-04T01:29:23.514Z,98424.22
2022-09-04T01:34:43.918Z,98429.16
2022-09-04T01:39:55.396Z,98429.25
2022-09-04T01:45:02.558Z,98432.88
2022-09-04T01:50:14.190Z,98433.63
2022-09-04T01:55:24.195Z,98439.03
2022-09-04T02:00:36.058Z,98442.16
2022-09-04T02:05:51.968Z,98447.78
2022-09-04T02:11:04.942Z,98437.97
2022-09-04T02:16:18.070Z,98438.50
2022-09-04T02:21:31.194Z,98444.66
2022-09-04T02:26:42.619Z,98437.25
2022-09-04T02:31:57.249Z,98448.44
2022-09-04T02:37:09.444Z,98446.47
2022-09-04T02:42:21.936Z,98450.38
2022-09-04T02:47:36.740Z,98449.88
2022-09-04T02:53:03.198Z,98449.88
2022-09-04T02:58:19.898Z,98453.13
2022-09-04T03:03:35.264Z,98449.59
2022-09-04T03:08:46.270Z,98447.25
2022-09-04T03:13:56.009Z,98448.63
2022-09-04T03:19:21.226Z,98447.13
2022-09-04T03:24:31.358Z,98448.16
2022-09-04T03:29:42.572Z,98462.91
2022-09-04T03:34:58.106Z,98456.81
2022-09-04T03:40:23.912Z,98453.78
2022-09-04T03:45:39.750Z,98459.56
2022-09-04T03:50:57.875Z,98467.84
2022-09-04T03:56:28.902Z,98473.13
2022-09-04T04:01:46.111Z,98481.75
2022-09-04T04:07:01.714Z,98474.84
2022-09-04T04:12:27.475Z,98483.31
2022-09-04T04:17:50.710Z,98490.28
2022-09-04T04:23:17.820Z,98491.81
2022-09-04T04:28:39.182Z,98501.31
2022-09-04T04:33:53.257Z,98503.69
2022-09-04T04:39:13.212Z,98511.13
2022-09-04T04:44:41.618Z,98519.56
2022-09-04T04:50:01.641Z,98531.38
2022-09-04T04:55:21.413Z,98530.06
2022-09-04T05:00:30.822Z,98539.19
2022-09-04T05:06:00.403Z,98545.59
2022-09-04T05:11:15.892Z,98556.25
2022-09-04T05:16:28.218Z,98551.69
2022-09-04T05:21:42.095Z,98560.47
2022-09-04T05:26:57.992Z,98569.25
2022-09-04T05:32:23.644Z,98578.88
2022-09-04T05:37:34.132Z,98582.28
2022-09-04T05:42:52.356Z,98593.25
2022-09-04T05:48:09.826Z,98603.34
2022-09-04T05:53:38.861Z,98602.50
2022-09-04T05:59:01.337Z,98618.19
2022-09-04T06:04:27.797Z,98621.91
2022-09-04T06:09:55.127Z,98627.81
2022-09-04T06:15:18.075Z,98629.63
2022-09-04T06:20:46.267Z,98636.38
2022-09-04T06:26:24.688Z,98646.69
2022-09-04T06:32:04.857Z,98645.53
2022-09-04T06:37:20.670Z,98644.28
2022-09-04T06:42:37.893Z,98649.50
2022-09-04T06:47:58.795Z,98650.81
2022-09-04T06:53:18.277Z,98660.25
2022-09-04T06:58:48.926Z,98653.88
2022-09-04T07:04:07.118Z,98653.97
2022-09-04T07:09:18.476Z,98655.06
2022-09-04T07:14:45.172Z,98667.66
2022-09-04T07:20:18.136Z,98667.38
2022-09-04T07:25:28.090Z,98670.13
2022-09-04T07:30:40.078Z,98673.34
2022-09-04T07:35:54.359Z,98670.59
2022-09-04T07:41:10.692Z,98660.41
2022-09-04T07:46:23.820Z,98650.84
2022-09-04T07:51:48.325Z,98661.31
2022-09-04T07:57:12.217Z,98658.50
2022-09-04T08:02:28.760Z,98660.88
2022-09-04T08:08:04.804Z,98661.25
2022-09-04T08:13:33.786Z,98674.69
2022-09-04T08:19:05.068Z,98670.91
2022-09-04T08:24:46.282Z,98685.97
2022-09-04T08:30:06.698Z,98692.00
2022-09-04T08:35:20.828Z,98681.25
2022-09-04T08:40:53.469Z,98694.00
2022-09-04T08:46:29.029Z,98692.63
2022-09-04T08:52:02.680Z,98700.72
2022-09-04T08:57:38.893Z,98703.28
2022-09-04T09:03:19.131Z,98701.66
2022-09-04T09:08:43.167Z,98698.31
2022-09-04T09:14:19.875Z,98698.34
2022-09-04T09:19:44.022Z,98693.91
2022-09-04T09:25:12.486Z,98694.72
2022-09-04T09:30:23.156Z,98701.84
2022-09-04T09:35:58.595Z,98700.97
2022-09-04T09:41:34.951Z,98700.72
2022-09-04T09:47:09.961Z,98706.31
2022-09-04T09:52:48.592Z,98700.94
2022-09-04T09:58:24.244Z,98703.19
2022-09-04T10:03:54.734Z,98699.56
2022-09-04T10:09:37.455Z,98701.41
2022-09-04T10:15:04.854Z,98692.47
2022-09-04T10:20:54.083Z,98700.63
2022-09-04T10:26:13.114Z,98691.22
2022-09-04T10:31:42.809Z,98681.94
2022-09-04T10:37:01.889Z,98686.88
2022-09-04T10:42:29.334Z,98689.50
2022-09-04T10:48:05.175Z,98681.41
2022-09-04T10:53:44.151Z,98685.97
2022-09-04T10:59:10.697Z,98688.66
2022-09-04T11:04:37.185Z,98689.03
2022-09-04T11:09:57.932Z,98690.16
2022-09-04T11:15:27.572Z,98689.25
2022-09-04T11:21:15.106Z,98687.59
2022-09-04T11:26:50.122Z,98682.72
2022-09-04T11:32:13.759Z,98677.63
2022-09-04T11:37:58.140Z,98664.41
2022-09-04T11:43:22.535Z,98672.59
2022-09-04T11:48:56.008Z,98670.44
2022-09-04T11:54:23.603Z,98667.44
2022-09-04T11:59:58.643Z,98672.19
2022-09-04T12:05:20.249Z,98674.22
2022-09-04T12:10:39.381Z,98672.03
2022-09-04T12:16:09.161Z,98663.59
2022-09-04T12:21:48.969Z,98650.91
2022-09-04T12:27:18.012Z,98647.13
2022-09-04T12:33:08.239Z,98647.78
2022-09-04T12:38:38.636Z,98646.16
2022-09-04T12:43:58.500Z,98653.72
2022-09-04T12:49:19.233Z,98647.03
2022-09-04T12:54:36.486Z,98650.88
2022-09-04T13:00:08.033Z,98652.94
2022-09-04T13:05:34.659Z,98656.22
2022-09-04T13:10:51.249Z,98664.28
2022-09-04T13:16:01.647Z,98663.78
2022-09-04T13:21:17.792Z,98659.03
2022-09-04T13:26:51.777Z,98671.91
2022-09-04T13:32:11.168Z,98670.84
2022-09-04T13:37:29.355Z,98685.72
2022-09-04T13:43:04.778Z,98675.94
2022-09-04T13:48:16.634Z,98679.63
2022-09-04T13:53:25.907Z,98675.28
2022-09-04T13:58:35.492Z,98674.34
2022-09-04T14:03:48.793Z,98685.81
2022-09-04T14:09:05.163Z,98678.28
2022-09-04T14:14:39.127Z,98674.50
2022-09-04T14:19:57.676Z,98676.41
2022-09-04T14:25:12.948Z,98682.66
2022-09-04T14:30:23.142Z,98681.91
2022-09-04T14:35:36.335Z,98681.53
2022-09-04T14:40:48.536Z,98692.91
2022-09-04T14:46:11.592Z,98693.16
2022-09-04T14:51:34.259Z,98694.31
2022-09-04T14:56:47.365Z,98696.09
2022-09-04T15:02:14.926Z,98700.72
2022-09-04T15:07:30.957Z,98697.72
2022-09-04T15:12:39.252Z,98702.69
2022-09-04T15:17:51.570Z,98696.63
2022-09-04T15:23:02.424Z,98706.72
2022-09-04T15:28:13.865Z,98706.59
2022-09-04T15:33:22.506Z,98708.50
2022-09-04T15:38:31.267Z,98710.97
2022-09-04T15:43:42.682Z,98710.53
2022-09-04T15:48:54.478Z,98708.59
2022-09-04T15:54:27.280Z,98717.13
2022-09-04T15:59:47.112Z,98721.44
2022-09-04T16:05:00.124Z,98727.63
2022-09-04T16:10:15.757Z,98738.50
2022-09-04T16:15:27.839Z,98731.41
2022-09-04T16:20:40.639Z,98729.13
2022-09-04T16:25:51.851Z,98726.97
2022-09-04T16:31:00.670Z,98733.66
2022-09-04T16:36:11.430Z,98732.13
2022-09-04T16:41:25.807Z,98725.34
2022-09-04T16:46:35.405Z,98731.44
2022-09-04T16:51:46.033Z,98723.38
2022-09-04T16:57:12.224Z,98739.06
2022-09-04T17:02:29.497Z,98739.53
2022-09-04T17:07:47.580Z,98744.91
2022-09-04T17:13:01.933Z,98742.03
2022-09-04T17:18:12.105Z,98738.38
2022-09-04T17:26:28.079Z,98739.16
2022-09-04T17:29:33.763Z,98741.00
2022-09-04T17:40:33.489Z,98740.56
2022-09-04T17:40:53.289Z,98750.78
2022-09-04T17:46:02.631Z,98748.13
2022-09-04T17:51:10.113Z,98745.88
2022-09-04T17:56:20.564Z,98752.47
2022-09-04T18:01:31.751Z,98751.97
2022-09-04T18:06:42.033Z,98768.31
2022-09-04T18:12:00.247Z,98772.91
2022-09-04T18:17:17.250Z,98780.09
2022-09-04T18:22:33.370Z,98781.22
2022-09-04T18:27:44.919Z,98791.63
2022-09-04T18:37:07.474Z,98787.94
2022-09-04T18:38:32.204Z,98787.50
2022-09-04T18:49:23.830Z,98787.03
2022-09-04T18:50:45.856Z,98790.13
2022-09-04T18:54:54.175Z,98796.81
2022-09-04T19:00:09.316Z,98800.06
2022-09-04T19:05:20.163Z,98808.38
2022-09-04T19:10:30.090Z,98807.16
2022-09-04T19:15:55.731Z,98818.22
2022-09-04T19:21:21.295Z,98825.47
2022-09-04T19:26:38.898Z,98824.22
2022-09-04T19:31:51.103Z,98824.06
2022-09-04T19:38:11.009Z,98828.13
2022-09-04T19:46:01.661Z,98828.63
2022-09-04T19:48:20.836Z,98827.78
2022-09-04T19:53:48.684Z,98837.28
2022-09-04T19:59:00.387Z,98840.91
2022-09-04T20:04:12.432Z,98844.72
2022-09-04T20:09:29.219Z,98842.19
2022-09-04T20:14:41.154Z,98852.56
2022-09-04T20:19:51.566Z,98843.50
2022-09-04T20:25:16.166Z,98850.50
2022-09-04T20:30:24.768Z,98847.97
2022-09-04T20:35:37.124Z,98850.28
2022-09-04T20:40:48.470Z,98852.41
2022-09-04T20:52:40.971Z,98858.31
2022-09-04T20:52:50.227Z,98852.63
2022-09-04T20:59:32.164Z,98858.97
2022-09-04T21:03:10.270Z,98862.94
2022-09-04T21:08:19.893Z,98865.63
2022-09-04T21:13:34.662Z,98867.53
2022-09-04T21:19:27.372Z,98863.75
2022-09-04T21:24:57.523Z,98860.59
2022-09-04T21:30:11.045Z,98869.41
2022-09-04T21:35:22.890Z,98872.75
2022-09-04T21:40:50.760Z,98872.31
2022-09-04T21:46:19.844Z,98872.06
2022-09-04T21:51:39.025Z,98877.50
2022-09-04T22:02:29.178Z,98876.25
2022-09-04T22:02:57.758Z,98876.19
2022-09-04T22:11:55.593Z,98877.63
2022-09-04T22:14:03.098Z,98867.31
2022-09-04T22:19:20.998Z,98874.44
2022-09-04T22:24:49.151Z,98877.56
2022-09-04T22:30:06.537Z,98874.63
2022-09-04T22:35:50.011Z,98879.84
2022-09-04T22:41:08.922Z,98877.72
2022-09-04T22:46:34.849Z,98877.69
2022-09-04T22:52:10.079Z,98886.47
2022-09-04T22:57:22.446Z,98884.75
2022-09-04T23:03:07.171Z,98881.78
2022-09-04T23:13:45.050Z,98874.19
2022-09-04T23:14:21.423Z,98886.72
2022-09-04T23:23:48.906Z,98880.41
2022-09-04T23:26:53.143Z,98876.19
2022-09-04T23:31:37.845Z,98887.06
2022-09-04T23:37:19.601Z,98892.06
2022-09-04T23:42:41.716Z,98895.94
2022-09-04T23:48:19.240Z,98886.22
2022-09-04T23:53:38.347Z,98884.69
2022-09-04T23:59:24.759Z,98890.06
